createdAt,value
2024-03-28T00:00:05.663Z,968.16
2024-03-28T00:00:25.637Z,968.10
2024-03-28T00:00:35.590Z,968.16
2024-03-28T00:00:46.455Z,968.15
2024-03-28T00:00:58.063Z,968.10
2024-03-28T00:01:05.588Z,968.11
2024-03-28T00:01:15.582Z,968.11
2024-03-28T00:01:25.660Z,968.17
2024-03-28T00:01:35.594Z,968.17
2024-03-28T00:01:46.061Z,968.21
2024-03-28T00:02:05.627Z,968.19
2024-03-28T00:02:15.587Z,968.19
2024-03-28T00:02:25.659Z,968.18
2024-03-28T00:02:35.673Z,968.20
2024-03-28T00:02:46.503Z,968.16
2024-03-28T00:02:55.599Z,968.17
2024-03-28T00:03:15.575Z,968.16
2024-03-28T00:03:25.575Z,968.19
2024-03-28T00:03:35.585Z,968.22
2024-03-28T00:03:45.579Z,968.17
2024-03-28T00:03:55.615Z,968.20
2024-03-28T00:04:05.607Z,968.15
2024-03-28T00:04:15.665Z,968.17
2024-03-28T00:04:35.579Z,968.20
2024-03-28T00:04:45.581Z,968.19
2024-03-28T00:04:55.556Z,968.16
2024-03-28T00:05:05.558Z,968.23
2024-03-28T00:05:15.585Z,968.20
2024-03-28T00:05:25.623Z,968.20
2024-03-28T00:05:35.596Z,968.20
2024-03-28T00:05:45.574Z,968.13
2024-03-28T00:05:55.645Z,968.18
2024-03-28T00:06:05.558Z,968.16
2024-03-28T00:06:25.570Z,968.23
2024-03-28T00:06:35.566Z,968.20
2024-03-28T00:06:45.566Z,968.12
2024-03-28T00:06:55.637Z,968.16
2024-03-28T00:07:05.570Z,968.15
2024-03-28T00:07:15.617Z,968.19
2024-03-28T00:07:25.688Z,968.16
2024-03-28T00:07:36.498Z,968.16
2024-03-28T00:07:45.551Z,968.21
2024-03-28T00:08:05.573Z,968.17
2024-03-28T00:08:15.552Z,968.15
2024-03-28T00:08:25.604Z,968.15
2024-03-28T00:08:35.571Z,968.19
2024-03-28T00:08:45.558Z,968.19
2024-03-28T00:08:55.595Z,968.18
2024-03-28T00:09:15.599Z,968.18
2024-03-28T00:09:25.572Z,968.15
2024-03-28T00:09:35.619Z,968.12
2024-03-28T00:09:45.658Z,968.11
2024-03-28T00:09:55.549Z,968.11
2024-03-28T00:10:05.572Z,968.07
2024-03-28T00:10:25.609Z,968.13
2024-03-28T00:10:35.541Z,968.13
2024-03-28T00:10:45.612Z,968.13
2024-03-28T00:10:55.533Z,968.17
2024-03-28T00:11:06.530Z,968.12
2024-03-28T00:11:15.531Z,968.10
2024-03-28T00:11:25.704Z,968.03
2024-03-28T00:11:46.596Z,968.12
2024-03-28T00:11:55.686Z,968.10
2024-03-28T00:12:05.611Z,968.12
2024-03-28T00:12:15.580Z,968.10
2024-03-28T00:12:25.520Z,968.11
2024-03-28T00:12:35.551Z,968.11
2024-03-28T00:12:55.519Z,968.10
2024-03-28T00:13:05.556Z,968.07
2024-03-28T00:13:15.552Z,968.10
2024-03-28T00:13:25.525Z,968.05
2024-03-28T00:13:35.546Z,968.10
2024-03-28T00:13:48.576Z,968.07
2024-03-28T00:13:56.746Z,968.09
2024-03-28T00:14:06.497Z,968.14
2024-03-28T00:14:15.600Z,968.13
2024-03-28T00:14:25.527Z,968.11
2024-03-28T00:14:45.547Z,968.13
2024-03-28T00:14:56.508Z,968.13
2024-03-28T00:15:05.527Z,968.15
2024-03-28T00:15:15.509Z,968.10
2024-03-28T00:15:25.592Z,968.12
2024-03-28T00:15:35.620Z,968.11
2024-03-28T00:15:45.621Z,968.13
2024-03-28T00:15:56.633Z,968.11
2024-03-28T00:16:15.626Z,968.13
2024-03-28T00:16:26.551Z,968.14
2024-03-28T00:16:35.565Z,968.14
2024-03-28T00:16:45.524Z,968.13
2024-03-28T00:16:55.547Z,968.13
2024-03-28T00:17:05.541Z,968.11
2024-03-28T00:17:25.562Z,968.11
2024-03-28T00:17:35.527Z,968.11
2024-03-28T00:17:45.508Z,968.10
2024-03-28T00:17:56.066Z,968.10
2024-03-28T00:18:05.509Z,968.02
2024-03-28T00:18:15.573Z,968.04
2024-03-28T00:18:35.588Z,968.04
2024-03-28T00:18:45.525Z,968.05
2024-03-28T00:18:55.514Z,968.03
2024-03-28T00:19:07.217Z,968.04
2024-03-28T00:19:16.220Z,968.03
2024-03-28T00:19:30.625Z,968.02
2024-03-28T00:19:36.378Z,968.00
2024-03-28T00:19:45.557Z,968.01
2024-03-28T00:20:05.709Z,968.03
2024-03-28T00:20:15.502Z,968.02
2024-03-28T00:20:25.538Z,968.03
2024-03-28T00:20:35.634Z,968.06
2024-03-28T00:20:45.548Z,968.02
2024-03-28T00:20:55.558Z,968.01
2024-03-28T00:21:15.504Z,968.05
2024-03-28T00:21:25.527Z,968.04
2024-03-28T00:21:35.565Z,968.07
2024-03-28T00:21:46.078Z,967.99
2024-03-28T00:21:55.512Z,968.02
2024-03-28T00:22:06.035Z,968.02
2024-03-28T00:22:15.535Z,968.02
2024-03-28T00:22:25.550Z,968.05
2024-03-28T00:22:45.511Z,968.04
2024-03-28T00:22:55.501Z,968.01
2024-03-28T00:23:05.498Z,968.04
2024-03-28T00:23:15.467Z,968.04
2024-03-28T00:23:25.692Z,968.06
2024-03-28T00:23:35.591Z,968.02
2024-03-28T00:23:55.500Z,968.03
2024-03-28T00:24:05.533Z,968.02
2024-03-28T00:24:15.628Z,968.02
2024-03-28T00:24:26.014Z,968.02
2024-03-28T00:24:35.525Z,968.02
2024-03-28T00:24:45.524Z,968.02
2024-03-28T00:24:55.645Z,968.02
2024-03-28T00:25:05.537Z,968.01
2024-03-28T00:25:25.512Z,968.00
2024-03-28T00:25:35.533Z,968.01
2024-03-28T00:25:45.555Z,968.03
2024-03-28T00:25:55.501Z,967.99
2024-03-28T00:26:05.521Z,968.04
2024-03-28T00:26:15.556Z,967.97
2024-03-28T00:26:26.020Z,968.03
2024-03-28T00:26:45.481Z,968.06
2024-03-28T00:26:55.510Z,968.02
2024-03-28T00:27:05.456Z,968.05
2024-03-28T00:27:15.532Z,968.02
2024-03-28T00:27:25.512Z,967.99
2024-03-28T00:27:35.563Z,967.99
2024-03-28T00:27:45.491Z,968.05
2024-03-28T00:27:55.534Z,968.00
2024-03-28T00:28:05.564Z,968.02
2024-03-28T00:28:15.655Z,967.97
2024-03-28T00:28:25.664Z,967.96
2024-03-28T00:28:45.458Z,967.97
2024-03-28T00:28:55.459Z,968.02
2024-03-28T00:29:05.477Z,967.98
2024-03-28T00:29:15.502Z,968.03
2024-03-28T00:29:25.634Z,968.00
2024-03-28T00:29:35.466Z,967.97
2024-03-28T00:29:45.467Z,968.02
2024-03-28T00:30:05.454Z,968.01
2024-03-28T00:30:15.513Z,967.99
2024-03-28T00:30:25.645Z,967.99
2024-03-28T00:30:35.584Z,967.97
2024-03-28T00:30:45.474Z,968.00
2024-03-28T00:30:55.588Z,967.99
2024-03-28T00:31:05.484Z,968.00
2024-03-28T00:31:25.452Z,967.99
2024-03-28T00:31:35.494Z,968.01
2024-03-28T00:31:45.460Z,968.02
2024-03-28T00:31:55.562Z,968.01
2024-03-28T00:32:05.491Z,968.03
2024-03-28T00:32:15.477Z,968.00
2024-03-28T00:32:35.535Z,968.02
2024-03-28T00:32:45.598Z,968.00
2024-03-28T00:32:55.454Z,968.00
2024-03-28T00:33:05.466Z,968.04
2024-03-28T00:33:18.880Z,968.04
2024-03-28T00:33:25.456Z,967.97
2024-03-28T00:33:35.445Z,968.01
2024-03-28T00:33:55.481Z,968.02
2024-03-28T00:34:05.468Z,968.01
2024-03-28T00:34:15.496Z,967.99
2024-03-28T00:34:26.054Z,967.95
2024-03-28T00:34:35.501Z,967.99
2024-03-28T00:34:45.444Z,968.02
2024-03-28T00:34:55.474Z,968.00
2024-03-28T00:35:15.431Z,968.02
2024-03-28T00:35:25.529Z,968.01
2024-03-28T00:35:35.416Z,967.94
2024-03-28T00:35:45.441Z,968.01
2024-03-28T00:35:55.626Z,968.00
2024-03-28T00:36:05.407Z,967.97
2024-03-28T00:36:25.613Z,967.98
2024-03-28T00:36:36.037Z,968.01
2024-03-28T00:36:45.428Z,968.00
2024-03-28T00:36:55.501Z,968.01
2024-03-28T00:37:05.434Z,967.97
2024-03-28T00:37:15.535Z,967.98
2024-03-28T00:37:35.421Z,968.04
2024-03-28T00:37:45.425Z,967.98
2024-03-28T00:37:55.484Z,967.92
2024-03-28T00:38:05.499Z,967.96
2024-03-28T00:38:15.455Z,967.98
2024-03-28T00:38:25.553Z,967.94
2024-03-28T00:38:36.040Z,967.96
2024-03-28T00:38:45.465Z,967.99
2024-03-28T00:38:55.573Z,967.90
2024-03-28T00:39:15.422Z,967.92
2024-03-28T00:39:25.397Z,967.91
2024-03-28T00:39:35.424Z,967.90
2024-03-28T00:39:45.418Z,967.90
2024-03-28T00:39:55.458Z,967.91
2024-03-28T00:40:05.416Z,967.90
2024-03-28T00:40:15.458Z,967.88
2024-03-28T00:40:25.406Z,967.87
2024-03-28T00:40:45.569Z,967.83
2024-03-28T00:40:55.407Z,967.86
2024-03-28T00:41:05.514Z,967.83
2024-03-28T00:41:15.449Z,967.87
2024-03-28T00:41:25.405Z,967.89
2024-03-28T00:41:35.417Z,967.88
2024-03-28T00:41:55.417Z,967.94
2024-03-28T00:42:05.437Z,967.91
2024-03-28T00:42:15.472Z,967.91
2024-03-28T00:42:26.008Z,967.90
2024-03-28T00:42:35.719Z,967.90
2024-03-28T00:42:45.391Z,967.89
2024-03-28T00:42:55.475Z,967.90
2024-03-28T00:43:05.526Z,967.92
2024-03-28T00:43:25.403Z,967.95
2024-03-28T00:43:35.420Z,967.95
2024-03-28T00:43:45.397Z,967.96
2024-03-28T00:43:55.413Z,967.93
2024-03-28T00:44:05.438Z,967.94
2024-03-28T00:44:15.397Z,967.93
2024-03-28T00:44:26.125Z,967.96
2024-03-28T00:44:45.400Z,967.89
2024-03-28T00:44:55.421Z,967.90
2024-03-28T00:45:05.378Z,967.89
2024-03-28T00:45:15.391Z,967.86
2024-03-28T00:45:25.408Z,967.89
2024-03-28T00:45:35.375Z,967.86
2024-03-28T00:45:55.418Z,967.86
2024-03-28T00:46:05.399Z,967.85
2024-03-28T00:46:15.441Z,967.85
2024-03-28T00:46:25.509Z,967.80
2024-03-28T00:46:35.392Z,967.79
2024-03-28T00:46:45.392Z,967.75
2024-03-28T00:46:58.009Z,967.77
2024-03-28T00:47:15.408Z,967.80
2024-03-28T00:47:25.426Z,967.77
2024-03-28T00:47:35.438Z,967.78
2024-03-28T00:47:45.395Z,967.77
2024-03-28T00:47:55.460Z,967.69
2024-03-28T00:48:05.453Z,967.72
2024-03-28T00:48:15.477Z,967.73
2024-03-28T00:48:35.454Z,967.81
2024-03-28T00:48:45.430Z,967.78
2024-03-28T00:48:55.458Z,967.77
2024-03-28T00:49:05.470Z,967.78
2024-03-28T00:49:15.450Z,967.82
2024-03-28T00:49:25.431Z,967.82
2024-03-28T00:49:45.450Z,967.81
2024-03-28T00:49:55.456Z,967.86
2024-03-28T00:50:05.381Z,967.83
2024-03-28T00:50:15.356Z,967.80
2024-03-28T00:50:25.375Z,967.77
2024-03-28T00:50:35.388Z,967.81
2024-03-28T00:50:55.380Z,967.83
2024-03-28T00:51:05.464Z,967.83
2024-03-28T00:51:15.373Z,967.81
2024-03-28T00:51:25.400Z,967.83
2024-03-28T00:51:35.388Z,967.80
2024-03-28T00:51:45.359Z,967.82
2024-03-28T00:52:05.396Z,967.75
2024-03-28T00:52:15.414Z,967.76
2024-03-28T00:52:25.364Z,967.80
2024-03-28T00:52:35.360Z,967.86
2024-03-28T00:52:45.355Z,967.80
2024-03-28T00:52:55.343Z,967.81
2024-03-28T00:53:05.420Z,967.82
2024-03-28T00:53:15.435Z,967.81
2024-03-28T00:53:25.603Z,967.80
2024-03-28T00:53:45.417Z,967.83
2024-03-28T00:53:55.466Z,967.81
2024-03-28T00:54:06.060Z,967.91
2024-03-28T00:54:15.359Z,967.84
2024-03-28T00:54:25.423Z,967.80
2024-03-28T00:54:35.366Z,967.86
2024-03-28T00:54:55.418Z,967.86
2024-03-28T00:55:05.408Z,967.87
2024-03-28T00:55:15.454Z,967.88
2024-03-28T00:55:25.360Z,967.89
2024-03-28T00:55:36.012Z,967.90
2024-03-28T00:55:45.379Z,967.92
2024-03-28T00:55:58.719Z,967.88
2024-03-28T00:56:15.398Z,967.90
2024-03-28T00:56:25.324Z,967.89
2024-03-28T00:56:35.350Z,967.87
2024-03-28T00:56:45.454Z,967.93
2024-03-28T00:56:55.366Z,967.92
2024-03-28T00:57:05.332Z,967.92
2024-03-28T00:57:25.328Z,967.92
2024-03-28T00:57:35.331Z,967.90
2024-03-28T00:57:45.391Z,967.92
2024-03-28T00:57:55.333Z,967.92
2024-03-28T00:58:05.334Z,967.95
2024-03-28T00:58:15.422Z,967.91
2024-03-28T00:58:35.428Z,967.91
2024-03-28T00:58:45.363Z,967.93
2024-03-28T00:58:55.337Z,967.95
2024-03-28T00:59:05.408Z,967.96
2024-03-28T00:59:15.354Z,967.91
2024-03-28T00:59:26.048Z,967.92
2024-03-28T00:59:45.362Z,967.92
2024-03-28T00:59:55.343Z,967.93
2024-03-28T01:00:05.446Z,967.93
2024-03-28T01:00:15.306Z,967.93
2024-03-28T01:00:25.349Z,967.91
2024-03-28T01:00:35.364Z,967.94
2024-03-28T01:00:45.469Z,967.90
2024-03-28T01:01:05.323Z,967.92
2024-03-28T01:01:15.358Z,967.93
2024-03-28T01:01:25.338Z,967.92
2024-03-28T01:01:35.407Z,967.93
2024-03-28T01:01:45.313Z,967.92
2024-03-28T01:01:55.318Z,967.91
2024-03-28T01:02:05.330Z,967.96
2024-03-28T01:02:25.355Z,967.93
2024-03-28T01:02:35.338Z,967.91
2024-03-28T01:02:45.297Z,967.92
2024-03-28T01:02:55.297Z,967.92
2024-03-28T01:03:05.386Z,967.94
2024-03-28T01:03:15.288Z,967.92
2024-03-28T01:03:35.378Z,967.96
2024-03-28T01:03:45.470Z,967.97
2024-03-28T01:03:55.325Z,967.94
2024-03-28T01:04:05.306Z,967.95
2024-03-28T01:04:15.328Z,967.98
2024-03-28T01:04:25.342Z,967.97
2024-03-28T01:04:45.367Z,967.98
2024-03-28T01:04:55.353Z,967.96
2024-03-28T01:05:05.390Z,968.01
2024-03-28T01:05:15.306Z,967.96
2024-03-28T01:05:25.310Z,968.01
2024-03-28T01:05:35.358Z,968.00
2024-03-28T01:05:55.305Z,968.01
2024-03-28T01:06:05.294Z,968.01
2024-03-28T01:06:15.313Z,968.00
2024-03-28T01:06:25.365Z,967.99
2024-03-28T01:06:35.312Z,968.03
2024-03-28T01:06:45.361Z,968.03
2024-03-28T01:06:55.352Z,967.99
2024-03-28T01:07:05.317Z,968.02
2024-03-28T01:07:15.463Z,968.03
2024-03-28T01:07:35.326Z,968.04
2024-03-28T01:07:45.434Z,968.03
2024-03-28T01:07:55.430Z,968.04
2024-03-28T01:08:05.423Z,968.05
2024-03-28T01:08:15.333Z,968.06
2024-03-28T01:08:25.299Z,968.01
2024-03-28T01:08:35.329Z,968.11
2024-03-28T01:08:55.596Z,968.09
2024-03-28T01:09:05.297Z,968.09
2024-03-28T01:09:15.318Z,968.08
2024-03-28T01:09:25.266Z,968.10
2024-03-28T01:09:35.294Z,968.11
2024-03-28T01:09:45.297Z,968.12
2024-03-28T01:10:05.276Z,968.09
2024-03-28T01:10:15.330Z,968.14
2024-03-28T01:10:25.289Z,968.12
2024-03-28T01:10:35.272Z,968.10
2024-03-28T01:10:45.325Z,968.08
2024-03-28T01:10:55.377Z,968.10
2024-03-28T01:11:05.327Z,968.11
2024-03-28T01:11:25.305Z,968.11
2024-03-28T01:11:35.418Z,968.07
2024-03-28T01:11:45.259Z,968.10
2024-03-28T01:11:55.296Z,968.09
2024-03-28T01:12:05.282Z,968.12
2024-03-28T01:12:15.266Z,968.12
2024-03-28T01:12:25.336Z,968.09
2024-03-28T01:12:35.327Z,968.13
2024-03-28T01:12:45.320Z,968.10
2024-03-28T01:13:05.258Z,968.13
2024-03-28T01:13:15.279Z,968.14
2024-03-28T01:13:25.309Z,968.14
2024-03-28T01:13:35.247Z,968.09
2024-03-28T01:13:45.305Z,968.06
2024-03-28T01:13:55.296Z,968.10
2024-03-28T01:14:05.333Z,968.12
2024-03-28T01:14:15.270Z,968.11
2024-03-28T01:14:25.317Z,968.10
2024-03-28T01:14:45.294Z,968.09
2024-03-28T01:14:55.302Z,968.11
2024-03-28T01:15:05.278Z,968.12
2024-03-28T01:15:15.368Z,968.10
2024-03-28T01:15:25.240Z,968.09
2024-03-28T01:15:35.238Z,968.12
2024-03-28T01:15:55.273Z,968.12
2024-03-28T01:16:06.032Z,968.05
2024-03-28T01:16:15.315Z,968.07
2024-03-28T01:16:25.482Z,968.08
2024-03-28T01:16:35.251Z,968.07
2024-03-28T01:16:45.249Z,968.06
2024-03-28T01:17:05.270Z,968.07
2024-03-28T01:17:15.288Z,968.07
2024-03-28T01:17:25.237Z,968.03
2024-03-28T01:17:35.289Z,968.10
2024-03-28T01:17:45.298Z,968.05
2024-03-28T01:17:55.266Z,968.07
2024-03-28T01:18:06.128Z,968.07
2024-03-28T01:18:15.364Z,968.06
2024-03-28T01:18:25.237Z,968.05
2024-03-28T01:18:45.300Z,968.09
2024-03-28T01:18:56.045Z,968.05
2024-03-28T01:19:05.270Z,968.11
2024-03-28T01:19:15.615Z,968.06
2024-03-28T01:19:25.318Z,968.08
2024-03-28T01:19:35.286Z,968.07
2024-03-28T01:19:55.252Z,968.07
2024-03-28T01:20:06.062Z,968.10
2024-03-28T01:20:16.044Z,968.07
2024-03-28T01:20:25.247Z,968.04
2024-03-28T01:20:36.030Z,968.05
2024-03-28T01:20:45.223Z,968.05
2024-03-28T01:21:05.234Z,968.04
2024-03-28T01:21:15.210Z,968.06
2024-03-28T01:21:25.266Z,968.04
2024-03-28T01:21:35.222Z,968.07
2024-03-28T01:21:45.214Z,967.98
2024-03-28T01:21:55.262Z,968.06
2024-03-28T01:22:05.285Z,968.05
2024-03-28T01:22:25.354Z,968.06
2024-03-28T01:22:35.312Z,968.06
2024-03-28T01:22:45.237Z,968.05
2024-03-28T01:22:55.237Z,968.06
2024-03-28T01:23:05.216Z,968.07
2024-03-28T01:23:15.333Z,968.10
2024-03-28T01:23:36.089Z,968.08
2024-03-28T01:23:45.235Z,968.11
2024-03-28T01:23:55.263Z,968.12
2024-03-28T01:24:05.212Z,968.08
2024-03-28T01:24:15.339Z,968.10
2024-03-28T01:24:26.089Z,968.15
2024-03-28T01:24:46.090Z,968.13
2024-03-28T01:24:55.223Z,968.13
2024-03-28T01:25:05.304Z,968.15
2024-03-28T01:25:15.262Z,968.19
2024-03-28T01:25:25.237Z,968.18
2024-03-28T01:25:35.416Z,968.22
2024-03-28T01:25:55.232Z,968.21
2024-03-28T01:26:05.221Z,968.24
2024-03-28T01:26:16.076Z,968.23
2024-03-28T01:26:25.282Z,968.27
2024-03-28T01:26:35.251Z,968.28
2024-03-28T01:26:45.232Z,968.25
2024-03-28T01:27:05.241Z,968.25
2024-03-28T01:27:16.032Z,968.24
2024-03-28T01:27:25.207Z,968.25
2024-03-28T01:27:35.220Z,968.26
2024-03-28T01:27:45.218Z,968.26
2024-03-28T01:27:55.196Z,968.27
2024-03-28T01:28:06.205Z,968.28
2024-03-28T01:28:25.198Z,968.28
2024-03-28T01:28:35.276Z,968.28
2024-03-28T01:28:45.172Z,968.30
2024-03-28T01:28:55.230Z,968.28
2024-03-28T01:29:05.212Z,968.29
2024-03-28T01:29:15.176Z,968.23
2024-03-28T01:29:25.264Z,968.22
2024-03-28T01:29:35.642Z,968.24
2024-03-28T01:29:46.107Z,968.25
2024-03-28T01:29:55.210Z,968.27
2024-03-28T01:30:05.229Z,968.27
2024-03-28T01:30:15.257Z,968.26
2024-03-28T01:30:26.034Z,968.27
2024-03-28T01:30:46.109Z,968.27
2024-03-28T01:30:55.193Z,968.28
2024-03-28T01:31:05.186Z,968.29
2024-03-28T01:31:15.189Z,968.27
2024-03-28T01:31:25.203Z,968.32
2024-03-28T01:31:35.207Z,968.26
2024-03-28T01:31:55.293Z,968.29
2024-03-28T01:32:06.067Z,968.28
2024-03-28T01:32:15.217Z,968.29
2024-03-28T01:32:25.241Z,968.31
2024-03-28T01:32:35.234Z,968.26
2024-03-28T01:32:45.182Z,968.32
2024-03-28T01:33:05.170Z,968.33
2024-03-28T01:33:15.176Z,968.32
2024-03-28T01:33:25.179Z,968.28
2024-03-28T01:33:35.163Z,968.29
2024-03-28T01:33:45.162Z,968.28
2024-03-28T01:33:55.209Z,968.24
2024-03-28T01:34:15.194Z,968.27
2024-03-28T01:34:26.048Z,968.31
2024-03-28T01:34:35.262Z,968.30
2024-03-28T01:34:45.259Z,968.31
2024-03-28T01:34:55.179Z,968.35
2024-03-28T01:35:05.272Z,968.34
2024-03-28T01:35:15.216Z,968.34
2024-03-28T01:35:35.171Z,968.34
2024-03-28T01:35:45.185Z,968.31
2024-03-28T01:35:55.184Z,968.34
2024-03-28T01:36:05.171Z,968.37
2024-03-28T01:36:15.306Z,968.34
2024-03-28T01:36:25.205Z,968.40
2024-03-28T01:36:35.242Z,968.35
2024-03-28T01:36:45.183Z,968.39
2024-03-28T01:37:06.064Z,968.42
2024-03-28T01:37:15.221Z,968.40
2024-03-28T01:37:25.176Z,968.41
2024-03-28T01:37:35.173Z,968.43
2024-03-28T01:37:45.220Z,968.43
2024-03-28T01:37:56.084Z,968.43
2024-03-28T01:38:15.129Z,968.46
2024-03-28T01:38:25.181Z,968.46
2024-03-28T01:38:35.219Z,968.45
2024-03-28T01:38:45.245Z,968.44
2024-03-28T01:38:55.235Z,968.46
2024-03-28T01:39:05.198Z,968.45
2024-03-28T01:39:16.053Z,968.44
2024-03-28T01:39:35.172Z,968.44
2024-03-28T01:39:45.195Z,968.42
2024-03-28T01:39:55.182Z,968.50
2024-03-28T01:40:05.247Z,968.45
2024-03-28T01:40:15.136Z,968.44
2024-03-28T01:40:25.195Z,968.45
2024-03-28T01:40:45.155Z,968.51
2024-03-28T01:40:55.195Z,968.45
2024-03-28T01:41:05.156Z,968.48
2024-03-28T01:41:15.179Z,968.45
2024-03-28T01:41:25.142Z,968.46
2024-03-28T01:41:35.160Z,968.44
2024-03-28T01:41:45.208Z,968.41
2024-03-28T01:42:05.120Z,968.45
2024-03-28T01:42:15.112Z,968.47
2024-03-28T01:42:25.161Z,968.48
2024-03-28T01:42:35.170Z,968.47
2024-03-28T01:42:45.119Z,968.51
2024-03-28T01:42:55.190Z,968.46
2024-03-28T01:43:15.308Z,968.44
2024-03-28T01:43:25.195Z,968.47
2024-03-28T01:43:35.185Z,968.47
2024-03-28T01:43:45.123Z,968.43
2024-03-28T01:43:55.218Z,968.44
2024-03-28T01:44:05.135Z,968.45
2024-03-28T01:44:15.175Z,968.46
2024-03-28T01:44:25.134Z,968.45
2024-03-28T01:44:45.149Z,968.47
2024-03-28T01:44:55.172Z,968.49
2024-03-28T01:45:05.194Z,968.47
2024-03-28T01:45:15.129Z,968.46
2024-03-28T01:45:25.108Z,968.44
2024-03-28T01:45:35.166Z,968.45
2024-03-28T01:45:45.179Z,968.49
2024-03-28T01:45:55.211Z,968.46
2024-03-28T01:46:19.950Z,968.49
2024-03-28T01:46:35.743Z,968.50
2024-03-28T01:46:43.365Z,968.50
2024-03-28T01:46:49.376Z,968.50
2024-03-28T01:47:17.154Z,968.47
2024-03-28T01:47:41.969Z,968.44
2024-03-28T01:47:48.524Z,968.48
2024-03-28T01:47:54.100Z,968.47
2024-03-28T01:48:05.211Z,968.45
2024-03-28T01:48:15.161Z,968.47
2024-03-28T01:48:35.203Z,968.49
2024-03-28T01:48:45.143Z,968.42
2024-03-28T01:48:55.087Z,968.44
2024-03-28T01:49:05.139Z,968.48
2024-03-28T01:49:15.096Z,968.45
2024-03-28T01:49:25.101Z,968.47
2024-03-28T01:49:45.119Z,968.43
2024-03-28T01:49:55.136Z,968.51
2024-03-28T01:50:05.112Z,968.44
2024-03-28T01:50:15.943Z,968.44
2024-03-28T01:50:25.099Z,968.44
2024-03-28T01:50:35.229Z,968.46
2024-03-28T01:50:45.097Z,968.42
2024-03-28T01:51:05.211Z,968.47
2024-03-28T01:51:15.172Z,968.49
2024-03-28T01:51:25.132Z,968.49
2024-03-28T01:51:35.083Z,968.49
2024-03-28T01:51:45.160Z,968.49
2024-03-28T01:51:55.091Z,968.53
2024-03-28T01:52:15.118Z,968.53
2024-03-28T01:52:25.154Z,968.49
2024-03-28T01:52:35.117Z,968.50
2024-03-28T01:52:45.118Z,968.52
2024-03-28T01:52:55.126Z,968.53
2024-03-28T01:53:05.118Z,968.47
2024-03-28T01:53:16.107Z,968.51
2024-03-28T01:53:35.076Z,968.52
2024-03-28T01:53:45.079Z,968.52
2024-03-28T01:53:55.096Z,968.51
2024-03-28T01:54:05.102Z,968.51
2024-03-28T01:54:15.121Z,968.53
2024-03-28T01:54:25.077Z,968.54
2024-03-28T01:54:35.137Z,968.53
2024-03-28T01:54:45.115Z,968.52
2024-03-28T01:55:05.078Z,968.52
2024-03-28T01:55:15.093Z,968.56
2024-03-28T01:55:25.268Z,968.54
2024-03-28T01:55:35.282Z,968.52
2024-03-28T01:55:45.105Z,968.55
2024-03-28T01:55:55.084Z,968.54
2024-03-28T01:56:05.163Z,968.56
2024-03-28T01:56:25.090Z,968.55
2024-03-28T01:56:35.254Z,968.56
2024-03-28T01:56:45.112Z,968.58
2024-03-28T01:56:55.078Z,968.54
2024-03-28T01:57:05.098Z,968.61
2024-03-28T01:57:15.218Z,968.60
2024-03-28T01:57:26.088Z,968.57
2024-03-28T01:57:35.100Z,968.62
2024-03-28T01:57:55.066Z,968.60
2024-03-28T01:58:05.076Z,968.60
2024-03-28T01:58:15.047Z,968.59
2024-03-28T01:58:25.132Z,968.63
2024-03-28T01:58:35.103Z,968.65
2024-03-28T01:58:45.100Z,968.62
2024-03-28T01:58:55.087Z,968.58
2024-03-28T01:59:05.086Z,968.63
2024-03-28T01:59:15.126Z,968.63
2024-03-28T01:59:35.164Z,968.64
2024-03-28T01:59:45.048Z,968.63
2024-03-28T01:59:55.130Z,968.64
2024-03-28T02:00:05.068Z,968.64
2024-03-28T02:00:15.074Z,968.63
2024-03-28T02:00:25.057Z,968.66
2024-03-28T02:00:45.136Z,968.60
2024-03-28T02:00:55.140Z,968.60
2024-03-28T02:01:05.079Z,968.60
2024-03-28T02:01:15.114Z,968.61
2024-03-28T02:01:25.149Z,968.57
2024-03-28T02:01:35.129Z,968.57
2024-03-28T02:01:45.203Z,968.59
2024-03-28T02:01:55.158Z,968.66
2024-03-28T02:02:05.055Z,968.58
2024-03-28T02:02:15.142Z,968.63
2024-03-28T02:02:25.079Z,968.66
2024-03-28T02:02:45.149Z,968.66
2024-03-28T02:02:55.102Z,968.65
2024-03-28T02:03:05.135Z,968.66
2024-03-28T02:03:15.114Z,968.69
2024-03-28T02:03:25.072Z,968.63
2024-03-28T02:03:35.631Z,968.66
2024-03-28T02:03:45.160Z,968.61
2024-03-28T02:04:05.059Z,968.61
2024-03-28T02:04:15.070Z,968.69
2024-03-28T02:04:25.036Z,968.68
2024-03-28T02:04:35.640Z,968.65
2024-03-28T02:04:45.129Z,968.69
2024-03-28T02:04:55.031Z,968.68
2024-03-28T02:05:15.085Z,968.69
2024-03-28T02:05:25.614Z,968.68
2024-03-28T02:05:35.042Z,968.69
2024-03-28T02:05:45.169Z,968.73
2024-03-28T02:05:56.018Z,968.69
2024-03-28T02:06:05.073Z,968.76
2024-03-28T02:06:25.155Z,968.76
2024-03-28T02:06:35.068Z,968.74
2024-03-28T02:06:45.095Z,968.71
2024-03-28T02:06:55.037Z,968.74
2024-03-28T02:07:05.043Z,968.72
2024-03-28T02:07:15.042Z,968.75
2024-03-28T02:07:35.038Z,968.76
2024-03-28T02:07:45.551Z,968.75
2024-03-28T02:07:55.221Z,968.76
2024-03-28T02:08:05.050Z,968.77
2024-03-28T02:08:15.079Z,968.77
2024-03-28T02:08:25.027Z,968.74
2024-03-28T02:08:35.161Z,968.76
2024-03-28T02:08:55.056Z,968.79
2024-03-28T02:09:05.096Z,968.84
2024-03-28T02:09:15.014Z,968.79
2024-03-28T02:09:25.014Z,968.78
2024-03-28T02:09:35.019Z,968.80
2024-03-28T02:09:45.037Z,968.80
2024-03-28T02:09:55.096Z,968.79
2024-03-28T02:10:05.160Z,968.89
2024-03-28T02:10:25.058Z,968.83
2024-03-28T02:10:35.042Z,968.85
2024-03-28T02:10:45.049Z,968.85
2024-03-28T02:10:55.062Z,968.86
2024-03-28T02:11:05.000Z,968.88
2024-03-28T02:11:15.007Z,968.90
2024-03-28T02:11:25.064Z,968.85
2024-03-28T02:11:45.005Z,968.87
2024-03-28T02:11:55.573Z,968.87
2024-03-28T02:12:05.009Z,968.90
2024-03-28T02:12:15.006Z,968.81
2024-03-28T02:12:25.068Z,968.89
2024-03-28T02:12:34.983Z,968.87
2024-03-28T02:12:55.014Z,968.88
2024-03-28T02:13:05.010Z,968.89
2024-03-28T02:13:15.072Z,968.89
2024-03-28T02:13:25.023Z,968.86
2024-03-28T02:13:35.002Z,968.84
2024-03-28T02:13:45.020Z,968.87
2024-03-28T02:13:55.084Z,968.91
2024-03-28T02:14:05.606Z,968.92
2024-03-28T02:14:25.051Z,968.98
2024-03-28T02:14:35.012Z,968.92
2024-03-28T02:14:45.024Z,968.90
2024-03-28T02:14:55.066Z,968.94
2024-03-28T02:15:05.732Z,968.90
2024-03-28T02:15:14.971Z,968.94
2024-03-28T02:15:34.985Z,968.94
2024-03-28T02:15:45.565Z,968.89
2024-03-28T02:15:54.977Z,968.88
2024-03-28T02:16:05.589Z,968.94
2024-03-28T02:16:14.987Z,968.95
2024-03-28T02:16:24.971Z,968.92
2024-03-28T02:16:35.102Z,968.93
2024-03-28T02:16:54.982Z,968.97
2024-03-28T02:17:05.003Z,968.99
2024-03-28T02:17:14.969Z,968.93
2024-03-28T02:17:24.972Z,968.93
2024-03-28T02:17:35.007Z,968.98
2024-03-28T02:17:44.962Z,968.91
2024-03-28T02:18:04.986Z,968.98
2024-03-28T02:18:15.058Z,968.98
2024-03-28T02:18:24.984Z,969.01
2024-03-28T02:18:35.069Z,968.91
2024-03-28T02:18:44.975Z,969.00
2024-03-28T02:18:54.980Z,968.98
2024-03-28T02:19:05.557Z,968.95
2024-03-28T02:19:24.987Z,968.99
2024-03-28T02:19:34.970Z,968.95
2024-03-28T02:19:44.977Z,968.91
2024-03-28T02:19:54.992Z,969.14
2024-03-28T02:20:05.572Z,968.99
2024-03-28T02:20:15.023Z,969.03
2024-03-28T02:20:25.124Z,969.00
2024-03-28T02:20:35.009Z,968.96
2024-03-28T02:20:55.073Z,968.98
2024-03-28T02:21:04.933Z,969.03
2024-03-28T02:21:14.981Z,968.93
2024-03-28T02:21:24.964Z,969.03
2024-03-28T02:21:34.943Z,968.93
2024-03-28T02:21:44.946Z,968.95
2024-03-28T02:22:04.976Z,968.94
2024-03-28T02:22:15.572Z,968.93
2024-03-28T02:22:25.085Z,969.01
2024-03-28T02:22:34.988Z,969.06
2024-03-28T02:22:45.567Z,968.98
2024-03-28T02:22:54.997Z,969.00